Time;durP1;ratioP1;P1;durP2;ratioP2;P2;SDS_P1;SDS_P2;PMS_P1;PMS_P2;Temp;Humidity;BMP_temperature;BMP_pressure;BME280_temperature;BME280_humidity;BME280_pressure;Samples;Min_cycle;Max_cycle;Signal;HPM_P1;HPM_P2
2022/11/04 00:01:49;;;;;;;9.18;4.22;;;;;;;6.94;73.45;96762.00;5075027;28;20086;-60
2022/11/04 00:04:19;;;;;;;8.50;4.90;;;;;;;6.93;73.73;96761.13;5074696;28;20048;-61
2022/11/04 00:06:47;;;;;;;4.35;3.22;;;;;;;6.98;73.43;96755.84;5074789;28;20075;-61
2022/11/04 00:09:17;;;;;;;8.40;4.82;;;;;;;6.99;73.26;96761.91;5074685;28;20048;-61
2022/11/04 00:14:30;;;;;;;8.98;4.40;;;;;;;6.88;74.57;96759.50;5074667;28;20059;-61
2022/11/04 00:30:48;;;;;;;6.50;4.53;;;;;;;6.87;73.89;96750.88;5074570;28;20101;-61
2022/11/04 00:33:26;;;;;;;9.35;4.68;;;;;;;6.88;73.82;96747.38;5074204;28;20102;-61
2022/11/04 00:35:57;;;;;;;11.25;4.85;;;;;;;6.91;73.16;96747.31;5074146;28;20049;-61
2022/11/04 00:38:25;;;;;;;7.88;4.85;;;;;;;6.91;73.37;96744.72;5074131;28;20052;-62
2022/11/04 00:40:53;;;;;;;6.47;4.53;;;;;;;6.94;73.09;96738.59;5073966;28;20092;-62
2022/11/04 00:43:20;;;;;;;9.57;5.05;;;;;;;6.91;72.91;96736.03;5074135;28;20052;-61
2022/11/04 00:45:47;;;;;;;13.60;4.28;;;;;;;6.92;72.61;96736.00;5073834;28;20072;-61
2022/11/04 00:48:15;;;;;;;7.80;4.57;;;;;;;6.92;72.89;96733.41;5073826;28;20044;-61
2022/11/04 00:50:43;;;;;;;7.70;4.70;;;;;;;6.89;72.59;96733.47;5073939;28;20468;-61
2022/11/04 00:53:11;;;;;;;10.13;5.57;;;;;;;6.83;73.39;96731.84;5074093;28;20058;-61
2022/11/04 00:55:39;;;;;;;10.05;5.20;;;;;;;6.74;74.04;96728.59;5073821;28;20045;-61
2022/11/04 00:58:06;;;;;;;9.38;5.18;;;;;;;6.73;74.58;96730.31;5073766;28;20123;-61
2022/11/04 01:00:33;;;;;;;7.75;4.75;;;;;;;6.76;74.20;96732.00;5073239;28;20490;-61
2022/11/04 01:03:01;;;;;;;16.33;5.32;;;;;;;6.77;73.83;96718.13;5073743;28;20049;-61
2022/11/04 01:05:28;;;;;;;8.18;4.78;;;;;;;6.77;73.72;96718.13;5073581;28;20059;-61
2022/11/04 01:07:57;;;;;;;8.07;5.03;;;;;;;6.68;74.71;96722.59;5073638;28;20469;-61
2022/11/04 01:10:25;;;;;;;7.20;4.60;;;;;;;6.70;74.99;96719.97;5073569;28;20055;-61
2022/11/04 01:12:53;;;;;;;8.07;4.85;;;;;;;6.68;74.14;96712.22;5073381;28;20521;-61
2022/11/04 01:15:20;;;;;;;11.70;4.53;;;;;;;6.66;73.93;96718.34;5073305;28;20044;-61
2022/11/04 01:17:47;;;;;;;8.18;4.70;;;;;;;6.61;74.04;96717.56;5073442;28;20127;-62
2022/11/04 01:20:14;;;;;;;9.00;4.43;;;;;;;6.60;74.04;96724.50;5073300;28;20050;-61
2022/11/04 01:22:42;;;;;;;7.82;5.28;;;;;;;6.53;74.28;96718.56;5073395;28;20052;-61
2022/11/04 01:25:10;;;;;;;14.57;5.43;;;;;;;6.49;74.37;96724.72;5073322;28;20067;-62
2022/11/04 01:27:38;;;;;;;9.38;5.30;;;;;;;6.50;74.83;96726.41;5073381;28;20117;-61
2022/11/04 01:30:07;;;;;;;7.57;4.75;;;;;;;6.51;75.20;96724.69;5073149;28;20102;-61
2022/11/04 01:32:34;;;;;;;7.38;4.88;;;;;;;6.52;75.56;96724.66;5073143;28;20049;-61
2022/11/04 01:35:01;;;;;;;8.65;5.43;;;;;;;6.50;76.07;96728.19;5073152;28;20051;-61
2022/11/04 01:37:28;;;;;;;8.20;4.95;;;;;;;6.51;76.15;96722.94;5073016;28;20052;-61
2022/11/04 01:39:55;;;;;;;10.75;5.07;;;;;;;6.49;75.80;96716.03;5073121;28;20052;-61
2022/11/04 01:42:23;;;;;;;7.78;4.30;;;;;;;6.40;76.01;96714.47;5073140;28;20135;-61
2022/11/04 01:44:54;;;;;;;9.23;5.15;;;;;;;6.31;76.68;96703.38;5073101;28;20041;-61
2022/11/04 01:47:28;;;;;;;7.45;5.13;;;;;;;6.32;76.64;96704.22;5073032;28;20127;-61
2022/11/04 01:49:59;;;;;;;10.35;5.97;;;;;;;6.32;76.31;96697.28;5072945;28;20094;-61
2022/11/04 01:52:32;;;;;;;10.75;4.93;;;;;;;6.32;74.74;96689.50;5072987;28;20128;-61
2022/11/04 01:55:03;;;;;;;8.27;4.65;;;;;;;6.35;74.57;96687.75;5073083;28;20103;-61
2022/11/04 01:57:34;;;;;;;9.23;4.63;;;;;;;6.37;74.86;96692.00;5073114;28;20505;-61
2022/11/04 02:00:08;;;;;;;9.82;4.90;;;;;;;6.25;75.45;96684.44;5072887;28;20044;-61
2022/11/04 02:02:40;;;;;;;8.25;5.30;;;;;;;6.22;76.47;96687.94;5072923;28;20676;-61
2022/11/04 02:05:09;;;;;;;8.63;4.50;;;;;;;6.23;76.88;96686.22;5072839;28;20048;-61
2022/11/04 02:07:37;;;;;;;7.80;4.75;;;;;;;6.22;76.66;96687.09;5073106;28;20048;-61
2022/11/04 02:10:06;;;;;;;7.57;4.75;;;;;;;6.24;76.52;96682.72;5072962;28;20049;-61
2022/11/04 02:12:51;;;;;;;8.63;4.78;;;;;;;6.23;76.17;96684.47;5074744;28;20057;-61
2022/11/04 02:15:27;;;;;;;10.82;5.03;;;;;;;6.24;76.11;96683.59;5076621;28;20056;-61
2022/11/04 02:18:10;;;;;;;8.63;5.00;;;;;;;6.29;76.19;96688.72;5076977;28;20110;-61
2022/11/04 02:21:13;;;;;;;7.15;4.97;;;;;;;6.16;77.26;96682.88;5076778;28;20110;-61
2022/11/04 02:24:31;;;;;;;8.73;6.18;;;;;;;6.14;78.45;96679.47;5057750;28;20053;-61
2022/11/04 02:27:26;;;;;;;9.82;4.75;;;;;;;6.18;78.47;96678.50;5071923;28;20080;-61
2022/11/04 02:30:06;;;;;;;9.43;4.82;;;;;;;6.20;77.81;96679.31;5076651;28;20059;-61
2022/11/04 02:33:02;;;;;;;12.13;6.45;;;;;;;6.28;77.44;96671.38;5076627;28;20414;-61
2022/11/04 02:35:41;;;;;;;8.93;5.72;;;;;;;6.28;77.76;96667.06;5076478;28;20135;-61
2022/11/04 02:38:15;;;;;;;8.57;4.85;;;;;;;6.33;77.84;96661.78;5076523;28;20049;-61
2022/11/04 02:40:49;;;;;;;8.80;4.60;;;;;;;6.40;77.65;96665.97;5076260;28;20083;-61
2022/11/04 02:43:25;;;;;;;10.35;4.95;;;;;;;6.37;78.47;96667.75;5076330;28;20044;-61
2022/11/04 02:46:03;;;;;;;12.60;5.43;;;;;;;6.40;78.37;96657.31;5076041;28;20478;-61
2022/11/04 02:48:36;;;;;;;12.27;5.22;;;;;;;6.41;78.66;96659.03;5076343;28;20040;-60
2022/11/04 02:51:11;;;;;;;10.57;5.20;;;;;;;6.48;78.28;96662.34;5076207;28;20056;-61
2022/11/04 02:53:44;;;;;;;10.38;5.13;;;;;;;6.55;77.95;96663.94;5076193;28;20055;-61
2022/11/04 02:56:13;;;;;;;8.25;4.45;;;;;;;6.57;77.85;96662.19;5076029;28;20140;-61
2022/11/04 02:58:47;;;;;;;9.65;4.63;;;;;;;6.66;77.89;96654.22;5075987;28;20056;-62
2022/11/04 03:01:19;;;;;;;11.63;4.95;;;;;;;6.66;78.10;96656.81;5075944;28;20053;-61
2022/11/04 03:03:53;;;;;;;9.43;4.90;;;;;;;6.66;78.50;96651.59;5075997;28;20505;-61
2022/11/04 03:06:23;;;;;;;8.05;4.75;;;;;;;6.73;78.85;96657.53;5075936;28;20048;-61
2022/11/04 03:08:54;;;;;;;4.90;3.70;;;;;;;6.77;77.54;96664.38;5075929;28;20044;-60
2022/11/04 03:11:24;;;;;;;8.80;4.72;;;;;;;6.75;76.46;96660.09;5075804;28;20052;-61
2022/11/04 03:13:57;;;;;;;9.15;5.05;;;;;;;6.75;76.72;96662.69;5075895;28;20091;-60
2022/11/04 03:16:32;;;;;;;7.03;4.65;;;;;;;6.77;76.64;96664.38;5075962;28;20134;-61
2022/11/04 03:19:06;;;;;;;7.40;4.65;;;;;;;6.81;76.58;96659.97;5075553;28;20086;-61
2022/11/04 03:21:37;;;;;;;11.27;5.10;;;;;;;6.83;76.15;96656.44;5075458;28;20053;-60
2022/11/04 03:24:05;;;;;;;8.02;4.57;;;;;;;6.80;76.34;96653.03;5075336;28;20052;-61
2022/11/04 03:26:41;;;;;;;7.60;5.50;;;;;;;6.78;76.03;96652.22;5075334;28;20102;-61
2022/11/04 03:29:20;;;;;;;8.30;4.93;;;;;;;6.76;76.38;96654.84;5075553;28;20080;-61
2022/11/04 03:31:56;;;;;;;8.65;4.00;;;;;;;6.70;76.08;96655.84;5075388;28;20084;-60
2022/11/04 03:34:23;;;;;;;8.43;4.55;;;;;;;6.68;76.47;96652.41;5075455;28;20084;-60
2022/11/04 03:36:50;;;;;;;9.10;4.85;;;;;;;6.72;76.30;96655.81;5075447;28;20480;-60
2022/11/04 03:39:18;;;;;;;6.75;4.18;;;;;;;6.76;75.86;96656.59;5075330;28;20052;-61
2022/11/04 03:41:49;;;;;;;6.05;3.33;;;;;;;6.76;75.06;96657.47;5075309;28;20566;-61
2022/11/04 03:44:16;;;;;;;8.48;4.57;;;;;;;6.69;75.33;96653.28;5075219;28;20101;-61
2022/11/04 03:46:43;;;;;;;8.45;4.25;;;;;;;6.64;75.31;96644.72;5075114;28;20056;-61
2022/11/04 03:49:13;;;;;;;5.88;4.13;;;;;;;6.65;74.97;96649.88;5075437;28;20048;-60
2022/11/04 03:51:41;;;;;;;5.82;3.63;;;;;;;6.62;75.34;96642.13;5075155;28;20548;-61
2022/11/04 03:54:08;;;;;;;5.50;4.25;;;;;;;6.60;75.37;96641.34;5075090;28;20132;-60
2022/11/04 03:57:01;;;;;;;7.30;4.88;;;;;;;6.54;75.45;96636.25;5074978;28;20486;-61
2022/11/04 03:59:48;;;;;;;10.20;4.70;;;;;;;6.42;75.57;96642.56;5074835;28;20045;-61
2022/11/04 04:02:20;;;;;;;7.22;5.00;;;;;;;6.42;75.89;96637.34;5074977;28;20044;-61
2022/11/04 04:04:56;;;;;;;8.25;5.35;;;;;;;6.38;75.21;96643.50;5074912;28;20052;-61
2022/11/04 04:07:30;;;;;;;7.75;4.65;;;;;;;6.37;75.56;96646.97;5074712;28;20140;-61
2022/11/04 04:10:37;;;;;;;6.80;4.60;;;;;;;6.40;75.75;96639.13;5074768;28;20479;-60
2022/11/04 04:12:59;;;;;;;9.38;4.88;;;;;;;6.35;75.55;96648.75;5074884;28;20560;-61
2022/11/04 04:15:30;;;;;;;4.43;3.60;;;;;;;6.25;76.43;96646.31;5074607;28;20118;-60
2022/11/04 04:18:03;;;;;;;8.77;4.25;;;;;;;6.22;76.14;96645.53;5074624;28;20048;-60
2022/11/04 04:20:36;;;;;;;8.40;4.88;;;;;;;6.23;75.79;96655.88;5074603;28;20080;-61
2022/11/04 04:27:29;;;;;;;8.65;5.00;;;;;;;6.15;75.84;96652.59;5074487;28;20486;-60
2022/11/04 04:28:47;;;;;;;8.82;4.90;;;;;;;6.03;76.28;96643.25;5074387;28;20145;-61
2022/11/04 04:31:48;;;;;;;17.23;4.45;;;;;;;6.06;76.59;96645.81;5074291;28;20094;-60
2022/11/04 04:34:04;;;;;;;7.43;4.93;;;;;;;6.01;76.35;96648.47;5074023;28;20050;-60
2022/11/04 04:36:39;;;;;;;9.60;4.60;;;;;;;6.01;76.18;96652.78;5073928;28;20055;-60
2022/11/04 04:47:41;;;;;;;8.57;4.85;;;;;;;5.70;77.60;96649.00;5058142;28;20048;-61
2022/11/04 04:50:10;;;;;;;8.85;4.82;;;;;;;5.65;78.53;96659.47;5074057;28;20045;-61
2022/11/04 04:52:41;;;;;;;6.80;4.38;;;;;;;5.70;78.20;96649.00;5073823;28;20066;-61
2022/11/04 04:55:10;;;;;;;11.35;4.68;;;;;;;5.74;77.91;96657.56;5073872;28;20052;-61
2022/11/04 04:57:37;;;;;;;8.50;4.45;;;;;;;5.79;77.15;96645.41;5073596;28;20051;-61
2022/11/04 05:00:07;;;;;;;8.02;4.32;;;;;;;5.75;77.00;96644.56;5073697;28;20127;-61
2022/11/04 05:02:34;;;;;;;3.90;2.90;;;;;;;5.77;77.11;96645.41;5073789;28;20131;-61
2022/11/04 05:05:02;;;;;;;7.88;4.93;;;;;;;5.82;76.80;96651.38;5073489;28;20049;-61
2022/11/04 05:07:30;;;;;;;7.00;4.13;;;;;;;5.81;76.98;96654.84;5073498;28;20052;-62
2022/11/04 05:09:58;;;;;;;7.50;4.40;;;;;;;5.81;77.38;96657.47;5073486;28;20048;-61
2022/11/04 05:13:24;;;;;;;8.43;4.13;;;;;;;5.80;77.80;96660.06;5073538;28;20048;-61
2022/11/04 05:15:13;;;;;;;7.93;4.60;;;;;;;5.85;76.92;96660.88;5073386;28;20562;-60
2022/11/04 05:17:40;;;;;;;6.88;4.45;;;;;;;5.93;75.95;96660.75;5073448;28;20083;-61
2022/11/04 05:20:09;;;;;;;9.38;4.70;;;;;;;6.00;76.10;96662.34;5073534;28;20645;-61
2022/11/04 05:22:36;;;;;;;7.72;4.57;;;;;;;6.06;75.99;96658.81;5073235;28;20048;-61
2022/11/04 05:25:05;;;;;;;9.70;4.90;;;;;;;6.11;76.20;96661.31;5073426;28;20407;-61
2022/11/04 05:27:32;;;;;;;9.73;4.43;;;;;;;6.18;76.37;96658.56;5073395;28;20135;-61
2022/11/04 05:29:59;;;;;;;10.75;4.53;;;;;;;6.24;76.90;96664.53;5073353;28;20045;-61
2022/11/04 05:32:29;;;;;;;7.05;4.85;;;;;;;6.30;76.87;96657.47;5073270;28;20044;-61
2022/11/04 05:34:56;;;;;;;12.48;4.13;;;;;;;6.42;76.77;96663.34;5073258;28;20051;-60
2022/11/04 05:37:23;;;;;;;7.50;4.55;;;;;;;6.54;76.75;96662.25;5073103;28;20048;-61
2022/11/04 05:39:51;;;;;;;6.80;3.90;;;;;;;6.68;76.60;96665.41;5073373;28;20154;-61
2022/11/04 05:42:19;;;;;;;9.50;4.03;;;;;;;6.83;75.54;96668.56;5073077;28;20132;-61
2022/11/04 05:44:46;;;;;;;10.65;4.20;;;;;;;6.99;74.38;96669.13;5073002;28;20044;-61
2022/11/04 05:47:13;;;;;;;6.05;3.58;;;;;;;7.14;74.04;96670.53;5072921;28;20052;-61
2022/11/04 05:49:40;;;;;;;7.53;4.22;;;;;;;7.33;73.74;96673.56;5072971;28;20479;-61
2022/11/04 05:52:08;;;;;;;5.80;4.10;;;;;;;7.63;73.65;96680.69;5073270;28;20119;-61
2022/11/04 05:54:37;;;;;;;8.10;3.70;;;;;;;8.06;71.26;96672.69;5073055;28;20102;-61
2022/11/04 05:57:04;;;;;;;7.88;4.30;;;;;;;8.86;69.25;96684.50;5073071;28;20452;-61
2022/11/04 05:59:32;;;;;;;6.00;4.32;;;;;;;9.93;65.83;96687.34;5072910;28;20083;-61
2022/11/04 06:01:59;;;;;;;6.03;3.80;;;;;;;10.73;62.62;96683.75;5073087;28;20045;-61
2022/11/04 06:04:27;;;;;;;5.45;3.85;;;;;;;11.19;60.35;96682.06;5072962;28;20052;-61
2022/11/04 06:06:54;;;;;;;6.20;4.20;;;;;;;11.43;59.68;96684.66;5072760;28;20053;-61
2022/11/04 06:09:37;;;;;;;7.15;3.67;;;;;;;11.29;60.34;96685.22;5072786;28;20463;-61
2022/11/04 06:12:06;;;;;;;8.23;4.43;;;;;;;11.20;60.50;96692.50;5073022;28;20047;-61
2022/11/04 06:14:34;;;;;;;10.77;4.40;;;;;;;11.47;60.78;96694.13;5072821;28;20123;-61
2022/11/04 06:17:02;;;;;;;10.25;4.70;;;;;;;12.33;59.70;96696.78;5072780;28;20083;-61
2022/11/04 06:19:29;;;;;;;6.75;4.05;;;;;;;13.43;56.82;96694.59;5072713;28;20056;-61
2022/11/04 06:21:56;;;;;;;6.55;4.07;;;;;;;14.35;54.05;96687.56;5072503;28;20044;-62
2022/11/04 06:24:23;;;;;;;6.93;3.40;;;;;;;15.34;51.52;96691.22;5072733;28;20048;-61
2022/11/04 06:26:50;;;;;;;7.15;4.07;;;;;;;16.23;49.68;96692.44;5072560;28;20384;-62
2022/11/04 06:29:17;;;;;;;6.70;4.28;;;;;;;17.20;47.52;96693.75;5072746;28;20048;-61
2022/11/04 06:31:46;;;;;;;7.53;3.40;;;;;;;18.10;45.40;96698.66;5072634;28;20080;-61
2022/11/04 06:34:13;;;;;;;5.90;3.67;;;;;;;18.80;43.57;96693.13;5072739;28;20049;-61
2022/11/04 06:36:42;;;;;;;6.78;3.30;;;;;;;19.63;42.23;96695.34;5072665;28;20047;-61
2022/11/04 06:39:11;;;;;;;4.88;3.00;;;;;;;20.15;40.41;96701.31;5072559;28;20053;-61
2022/11/04 06:41:39;;;;;;;4.70;3.35;;;;;;;20.72;39.42;96700.63;5072572;28;20055;-61
2022/11/04 06:44:06;;;;;;;5.15;3.15;;;;;;;21.37;38.37;96699.25;5072635;28;20131;-61
2022/11/04 06:46:37;;;;;;;6.10;3.55;;;;;;;22.11;36.98;96705.75;5072375;28;20044;-61
2022/11/04 06:49:11;;;;;;;9.88;4.90;;;;;;;22.70;35.63;96708.88;5072537;28;20048;-61
2022/11/04 06:51:38;;;;;;;14.70;5.50;;;;;;;23.03;34.46;96710.59;5072483;28;20106;-61
2022/11/04 06:54:05;;;;;;;13.57;6.50;;;;;;;23.55;33.17;96704.38;5072424;28;20113;-61
2022/11/04 06:56:33;;;;;;;9.88;4.95;;;;;;;24.27;31.98;96708.72;5072792;28;20488;-61
2022/11/04 06:59:00;;;;;;;8.05;5.28;;;;;;;24.33;32.14;96714.34;5074675;28;20080;-61
2022/11/04 07:01:30;;;;;;;5.90;4.25;;;;;;;24.92;31.06;96705.41;5076054;28;20055;-61
2022/11/04 07:03:58;;;;;;;7.80;4.00;;;;;;;25.53;29.95;96699.69;5075847;28;20094;-61
2022/11/04 07:06:29;;;;;;;5.32;4.07;;;;;;;26.01;29.79;96704.06;5075976;28;20045;-61
2022/11/04 07:08:58;;;;;;;6.38;3.65;;;;;;;26.49;28.82;96704.72;5075835;28;20067;-61
2022/11/04 07:11:26;;;;;;;8.85;4.38;;;;;;;26.86;28.17;96698.28;5075831;28;20106;-61
2022/11/04 07:13:54;;;;;;;5.55;4.03;;;;;;;27.10;28.14;96699.47;5075718;28;20501;-61
2022/11/04 07:16:21;;;;;;;10.18;3.83;;;;;;;27.26;27.31;96700.53;5076075;28;20102;-61
2022/11/04 07:18:49;;;;;;;4.75;3.83;;;;;;;27.47;27.44;96694.75;5075712;28;20048;-61
2022/11/04 07:21:16;;;;;;;4.57;3.58;;;;;;;27.71;27.36;96695.88;5075690;28;20401;-61
2022/11/04 07:23:44;;;;;;;4.72;3.50;;;;;;;28.12;26.35;96684.34;5075725;28;20084;-61
2022/11/04 07:26:13;;;;;;;5.13;3.63;;;;;;;28.25;26.45;96683.03;5075629;28;20045;-61
2022/11/04 07:28:40;;;;;;;6.55;4.00;;;;;;;28.58;25.72;96685.75;5075593;28;20123;-61
2022/11/04 07:31:10;;;;;;;6.57;4.50;;;;;;;28.75;25.46;96683.03;5075468;28;20041;-61
2022/11/04 07:33:38;;;;;;;5.22;4.20;;;;;;;29.16;24.97;96684.81;5075528;28;20048;-61
2022/11/04 07:36:05;;;;;;;7.15;3.90;;;;;;;29.41;24.71;96683.91;5075404;28;20055;-61
2022/11/04 07:38:33;;;;;;;6.05;4.15;;;;;;;29.51;24.42;96681.84;5075409;28;20042;-61
2022/11/04 07:41:01;;;;;;;5.20;3.45;;;;;;;29.56;24.00;96668.72;5075340;28;20048;-61
2022/11/04 07:43:29;;;;;;;4.60;3.80;;;;;;;29.43;24.43;96669.22;5075417;28;20530;-61
2022/11/04 07:46:00;;;;;;;4.45;3.63;;;;;;;29.58;24.35;96666.66;5075442;28;20050;-61
2022/11/04 07:48:27;;;;;;;6.47;4.22;;;;;;;29.01;24.81;96664.00;5075218;28;20080;-61
2022/11/04 07:50:56;;;;;;;7.60;4.20;;;;;;;28.55;25.63;96666.41;5075189;28;20060;-61
2022/11/04 07:53:23;;;;;;;5.38;3.97;;;;;;;28.18;26.03;96664.03;5075143;28;20410;-61
2022/11/04 07:55:50;;;;;;;5.82;4.60;;;;;;;27.67;26.60;96662.28;5075081;28;20453;-60
2022/11/04 07:58:19;;;;;;;7.15;4.63;;;;;;;26.81;27.78;96651.44;5075097;28;20052;-60
2022/11/04 08:00:47;;;;;;;6.68;4.30;;;;;;;26.06;29.03;96653.53;5075037;28;20186;-60
2022/11/04 08:03:14;;;;;;;8.32;4.53;;;;;;;25.12;30.30;96649.16;5074832;28;20495;-61
2022/11/04 08:05:41;;;;;;;10.65;5.03;;;;;;;24.26;31.87;96648.25;5074849;28;20406;-60
2022/11/04 08:08:08;;;;;;;6.93;4.45;;;;;;;23.50;33.19;96645.22;5074707;28;20045;-60
2022/11/04 08:10:36;;;;;;;6.70;4.70;;;;;;;23.04;34.19;96632.28;5073657;28;20402;-60
2022/11/04 08:13:03;;;;;;;8.85;4.22;;;;;;;22.25;35.95;96630.03;5074605;28;20094;-60
2022/11/04 08:15:31;;;;;;;6.38;4.57;;;;;;;21.75;36.99;96634.09;5074636;28;20410;-60
2022/11/04 08:17:59;;;;;;;6.20;4.10;;;;;;;21.10;38.50;96632.16;5074469;28;20123;-60
2022/11/04 08:20:26;;;;;;;7.10;4.15;;;;;;;20.91;39.22;96630.97;5074442;28;20119;-60
2022/11/04 08:22:53;;;;;;;5.05;4.13;;;;;;;20.46;40.61;96631.72;5074257;28;20084;-60
2022/11/04 08:25:20;;;;;;;7.05;4.50;;;;;;;20.37;41.49;96625.31;5074506;28;20153;-61
2022/11/04 08:27:47;;;;;;;7.18;5.07;;;;;;;20.07;43.05;96626.69;5074257;28;20482;-60
2022/11/04 08:30:14;;;;;;;8.00;4.90;;;;;;;19.76;43.22;96627.16;5074364;28;20419;-60
2022/11/04 08:32:43;;;;;;;8.77;4.97;;;;;;;19.83;44.01;96616.91;5074411;28;20040;-60
2022/11/04 08:35:10;;;;;;;6.75;4.65;;;;;;;19.79;43.21;96621.63;5074158;28;20044;-60
2022/11/04 08:37:38;;;;;;;9.40;5.28;;;;;;;19.62;44.04;96617.56;5074237;28;20044;-60
2022/11/04 08:40:06;;;;;;;7.88;5.53;;;;;;;19.61;45.28;96610.56;5074218;28;20102;-60
2022/11/04 08:42:34;;;;;;;7.40;5.47;;;;;;;19.25;46.75;96609.63;5074143;28;20048;-60
2022/11/04 08:45:01;;;;;;;10.82;6.18;;;;;;;19.08;46.90;96605.56;5074342;28;20139;-60
2022/11/04 08:47:28;;;;;;;13.07;6.10;;;;;;;18.73;48.60;96601.78;5073775;28;20055;-60
2022/11/04 08:49:56;;;;;;;10.95;5.70;;;;;;;18.66;49.14;96593.44;5073915;28;20095;-60
2022/11/04 08:52:24;;;;;;;10.35;6.55;;;;;;;18.71;49.42;96590.44;5073905;28;20556;-59
2022/11/04 08:54:54;;;;;;;11.30;6.18;;;;;;;18.69;48.89;96599.34;5073892;28;20044;-59
2022/11/04 08:57:21;;;;;;;12.65;5.78;;;;;;;18.58;48.98;96599.25;5073878;28;20102;-60
2022/11/04 08:59:48;;;;;;;10.45;6.05;;;;;;;18.15;49.46;96580.06;5073892;28;20104;-59
2022/11/04 09:02:16;;;;;;;13.00;5.63;;;;;;;18.15;50.03;96593.31;5073645;28;20060;-59
2022/11/04 09:04:43;;;;;;;14.68;6.90;;;;;;;18.18;49.27;96597.53;5073580;28;20055;-60
2022/11/04 09:07:12;;;;;;;15.90;6.05;;;;;;;18.01;50.14;96590.72;5073527;28;20059;-60
2022/11/04 09:09:40;;;;;;;12.85;7.22;;;;;;;17.97;50.84;96589.25;5073592;28;20411;-60
2022/11/04 09:12:10;;;;;;;11.73;7.05;;;;;;;17.58;51.24;96594.44;5073499;28;20053;-59
2022/11/04 09:14:37;;;;;;;15.20;7.07;;;;;;;16.60;54.19;96589.03;5073469;28;20044;-60
2022/11/04 09:17:04;;;;;;;13.23;8.20;;;;;;;16.20;55.75;96594.97;5073516;28;20131;-59
2022/11/04 09:19:31;;;;;;;15.57;8.43;;;;;;;15.56;58.53;96589.88;5073351;28;20475;-59
2022/11/04 09:22:02;;;;;;;18.35;9.27;;;;;;;15.45;59.35;96591.34;5072821;28;20053;-59
2022/11/04 09:24:31;;;;;;;17.02;9.70;;;;;;;15.48;59.92;96580.63;5073401;28;20045;-60
2022/11/04 09:26:58;;;;;;;18.45;9.30;;;;;;;15.39;60.65;96576.69;5073455;28;20052;-59
2022/11/04 09:29:25;;;;;;;13.57;8.55;;;;;;;15.35;60.38;96564.63;5073262;28;20410;-60
2022/11/04 09:31:52;;;;;;;15.82;8.93;;;;;;;15.44;60.70;96567.69;5073364;28;20067;-60
2022/11/04 09:34:19;;;;;;;13.05;8.85;;;;;;;15.51;60.28;96564.59;5073265;28;20405;-61
2022/11/04 09:36:47;;;;;;;14.43;9.52;;;;;;;15.39;60.41;96560.88;5073148;28;20056;-60
2022/11/04 09:39:14;;;;;;;18.42;10.05;;;;;;;15.44;60.16;96557.16;5073126;28;20131;-60
2022/11/04 09:42:21;;;;;;;20.77;10.55;;;;;;;15.21;60.92;96561.94;5073195;28;20045;-60
2022/11/04 09:44:54;;;;;;;21.42;9.52;;;;;;;15.28;60.36;96555.38;5073014;28;20045;-60
2022/11/04 09:47:22;;;;;;;14.95;9.43;;;;;;;15.29;60.97;96554.44;5073205;28;20044;-60
2022/11/04 09:49:53;;;;;;;14.98;10.18;;;;;;;15.51;59.83;96553.22;5073085;28;20063;-60
2022/11/04 09:52:24;;;;;;;15.13;9.77;;;;;;;15.66;59.41;96546.22;5072977;28;20163;-60
2022/11/04 09:54:59;;;;;;;17.08;10.10;;;;;;;15.78;58.91;96539.38;5072999;28;20105;-60
2022/11/04 09:57:28;;;;;;;20.35;9.63;;;;;;;15.86;58.46;96531.00;5073099;28;20094;-60
2022/11/04 09:59:56;;;;;;;16.30;10.30;;;;;;;15.92;58.20;96522.69;5072970;28;20040;-60
2022/11/04 10:02:46;;;;;;;15.93;10.15;;;;;;;16.03;57.51;96519.47;5072997;28;20048;-61
2022/11/04 10:05:37;;;;;;;23.80;11.90;;;;;;;15.79;57.77;96515.53;5072997;28;20051;-60
2022/11/04 10:08:31;;;;;;;23.08;11.70;;;;;;;15.28;59.37;96503.53;5072723;28;20448;-59
2022/11/04 10:11:05;;;;;;;21.25;11.85;;;;;;;15.06;59.98;96505.69;5072974;28;20101;-60
2022/11/04 10:13:47;;;;;;;24.60;10.43;;;;;;;15.03;60.25;96498.84;5072826;28;20045;-60
2022/11/04 10:16:27;;;;;;;15.02;9.85;;;;;;;14.98;61.08;96491.19;5073066;28;20075;-60
2022/11/04 10:19:16;;;;;;;17.60;10.60;;;;;;;14.93;61.52;96487.94;5072852;28;20496;-60
2022/11/04 10:21:49;;;;;;;22.80;11.52;;;;;;;14.85;61.96;96488.41;5072765;28;20049;-60
2022/11/04 10:24:24;;;;;;;16.70;10.18;;;;;;;14.60;62.97;96478.38;5072794;28;20082;-60
2022/11/04 10:26:56;;;;;;;18.05;10.68;;;;;;;14.43;64.06;96471.38;5072676;28;20517;-60
2022/11/04 10:29:31;;;;;;;19.88;11.80;;;;;;;14.35;64.34;96466.53;5072585;28;20644;-60
2022/11/04 10:32:01;;;;;;;20.30;11.38;;;;;;;14.22;65.08;96461.09;5072727;28;20098;-60
2022/11/04 10:34:36;;;;;;;30.52;11.43;;;;;;;14.23;64.99;96462.78;5075973;28;20098;-60
2022/11/04 10:37:05;;;;;;;19.15;11.52;;;;;;;14.44;64.38;96463.41;5076669;28;20458;-60
2022/11/04 10:39:37;;;;;;;25.23;11.77;;;;;;;14.48;64.29;96453.56;5076474;28;20060;-60
2022/11/04 10:42:05;;;;;;;17.88;11.45;;;;;;;14.46;64.33;96451.03;5076560;28;20048;-60
2022/11/04 10:44:35;;;;;;;24.67;11.48;;;;;;;14.62;64.07;96450.16;5076470;28;20555;-60
2022/11/04 10:47:14;;;;;;;24.38;12.07;;;;;;;14.57;63.88;96446.94;5076468;28;20064;-60
2022/11/04 10:50:22;;;;;;;22.98;12.02;;;;;;;14.36;64.46;96440.13;5076214;28;20052;-60
2022/11/04 10:52:49;;;;;;;23.25;12.85;;;;;;;14.27;64.98;96438.84;5076183;28;20087;-60
2022/11/04 10:55:30;;;;;;;23.13;12.95;;;;;;;14.26;65.24;96438.94;5076132;28;20055;-60
2022/11/04 10:57:59;;;;;;;23.17;11.65;;;;;;;14.18;65.74;96430.63;5076080;28;20087;-60
2022/11/04 11:00:36;;;;;;;24.85;12.63;;;;;;;14.22;65.12;96435.66;5076096;28;20494;-60
2022/11/04 11:03:21;;;;;;;25.77;13.32;;;;;;;14.27;65.35;96427.50;5076041;28;20482;-60
2022/11/04 11:05:49;;;;;;;25.77;14.57;;;;;;;14.22;65.57;96429.53;5075828;28;20106;-60
2022/11/04 11:08:29;;;;;;;25.80;13.27;;;;;;;14.30;65.72;96422.06;5075774;28;20052;-60
2022/11/04 11:10:56;;;;;;;27.50;13.68;;;;;;;14.43;65.39;96421.38;5076040;28;20040;-60
2022/11/04 11:13:34;;;;;;;20.67;12.35;;;;;;;14.58;63.80;96414.41;5075864;28;20052;-60
2022/11/04 11:16:09;;;;;;;22.80;12.95;;;;;;;14.66;63.70;96410.41;5075752;28;20049;-60
2022/11/04 11:18:37;;;;;;;21.05;12.45;;;;;;;14.69;63.53;96408.56;5075844;28;20082;-60
2022/11/04 11:21:08;;;;;;;22.45;12.25;;;;;;;14.77;63.52;96403.69;5075634;28;20398;-60
2022/11/04 11:23:39;;;;;;;19.40;12.20;;;;;;;14.87;62.36;96396.16;5075824;28;20056;-60
2022/11/04 11:26:07;;;;;;;;;;;;;;;14.81;62.70;96389.44;5076012;28;20131;-60
2022/11/04 11:28:38;;;;;;;24.40;12.32;;;;;;;14.84;62.45;96381.38;5075524;28;19979;-60
2022/11/04 11:31:15;;;;;;;25.20;12.57;;;;;;;14.74;62.54;96380.16;5075684;28;20063;-60
2022/11/04 11:33:50;;;;;;;17.88;11.23;;;;;;;14.91;62.43;96376.59;5075332;28;20563;-61
2022/11/04 11:36:21;;;;;;;20.85;12.25;;;;;;;15.05;61.95;96367.03;5075336;28;20148;-60
2022/11/04 11:39:15;;;;;;;20.38;12.27;;;;;;;15.27;61.66;96363.97;5075383;28;20040;-60
2022/11/04 11:41:56;;;;;;;25.20;12.68;;;;;;;15.29;61.27;96364.72;5075236;28;20048;-59
2022/11/04 11:44:31;;;;;;;22.63;10.52;;;;;;;15.44;61.08;96364.75;5075400;28;20044;-60
2022/11/04 11:47:02;;;;;;;20.25;11.32;;;;;;;15.66;60.92;96353.75;5075209;28;20044;-60
2022/11/04 11:49:32;;;;;;;21.42;11.85;;;;;;;15.85;60.21;96350.81;5075121;28;20487;-59
2022/11/04 11:52:24;;;;;;;20.58;11.80;;;;;;;15.94;60.11;96348.53;5075406;28;20052;-59
2022/11/04 11:54:55;;;;;;;20.83;10.70;;;;;;;16.07;59.46;96344.19;5075089;28;20468;-60
2022/11/04 11:57:37;;;;;;;21.77;11.82;;;;;;;16.24;58.93;96343.13;5075121;28;20123;-60
2022/11/04 12:00:08;;;;;;;20.15;10.07;;;;;;;16.45;58.36;96341.84;5075028;28;20074;-60
2022/11/04 12:02:45;;;;;;;20.33;10.73;;;;;;;16.65;57.44;96343.19;5074997;28;20098;-60
2022/11/04 12:05:14;;;;;;;24.23;10.52;;;;;;;16.86;56.55;96329.50;5074836;28;20052;-61
2022/11/04 12:07:51;;;;;;;20.55;11.18;;;;;;;16.98;55.78;96326.00;5074781;28;20055;-60
2022/11/04 12:10:26;;;;;;;19.50;11.27;;;;;;;16.99;55.54;96333.00;5074670;28;20056;-61
2022/11/04 12:13:04;;;;;;;19.48;9.77;;;;;;;16.91;55.08;96327.38;5074737;28;20383;-61
2022/11/04 12:15:44;;;;;;;21.20;11.38;;;;;;;16.84;55.74;96326.97;5074834;28;20526;-60
2022/11/04 12:18:41;;;;;;;17.08;9.48;;;;;;;16.72;55.75;96315.44;5074655;28;20088;-61
2022/11/04 12:21:14;;;;;;;16.67;8.82;;;;;;;16.73;55.26;96317.09;5072893;28;20052;-61